sensor_id;sensor_type;location;lat;lon;timestamp;P1;durP1;ratioP1;P2;durP2;ratioP2
3000;SDS011;1510;51.072;6.678;2023-03-01T04:39:24;838.05;;;791.03;;
3000;SDS011;1510;51.072;6.678;2023-03-01T05:11:50;812.28;;;770.38;;
3000;SDS011;1510;51.072;6.678;2023-03-01T05:22:15;812.30;;;769.78;;
3000;SDS011;1510;51.072;6.678;2023-03-01T05:24:47;807.88;;;765.65;;
3000;SDS011;1510;51.072;6.678;2023-03-01T11:33:53;16.20;;;9.73;;
3000;SDS011;1510;51.072;6.678;2023-03-01T11:36:26;18.20;;;10.70;;
3000;SDS011;1510;51.072;6.678;2023-03-01T11:39:00;15.83;;;10.07;;
3000;SDS011;1510;51.072;6.678;2023-03-01T11:41:31;19.67;;;10.63;;
3000;SDS011;1510;51.072;6.678;2023-03-01T12:15:46;15.63;;;9.67;;
3000;SDS011;1510;51.072;6.678;2023-03-01T12:37:46;13.30;;;9.10;;
3000;SDS011;1510;51.072;6.678;2023-03-01T12:43:27;14.40;;;9.97;;
3000;SDS011;1510;51.072;6.678;2023-03-01T12:46:19;13.90;;;9.00;;
3000;SDS011;1510;51.072;6.678;2023-03-01T12:48:55;11.30;;;6.87;;
3000;SDS011;1510;51.072;6.678;2023-03-01T12:51:33;11.63;;;6.93;;
3000;SDS011;1510;51.072;6.678;2023-03-01T12:54:05;13.60;;;9.17;;
3000;SDS011;1510;51.072;6.678;2023-03-01T12:56:42;12.63;;;7.33;;
3000;SDS011;1510;51.072;6.678;2023-03-01T12:59:17;15.47;;;9.30;;
3000;SDS011;1510;51.072;6.678;2023-03-01T13:01:52;18.70;;;9.30;;
3000;SDS011;1510;51.072;6.678;2023-03-01T13:04:36;15.87;;;9.07;;
3000;SDS011;1510;51.072;6.678;2023-03-01T13:07:16;15.50;;;7.73;;
3000;SDS011;1510;51.072;6.678;2023-03-01T13:09:55;16.63;;;10.47;;
3000;SDS011;1510;51.072;6.678;2023-03-01T13:12:43;16.10;;;9.40;;
3000;SDS011;1510;51.072;6.678;2023-03-01T13:15:25;14.27;;;9.40;;
3000;SDS011;1510;51.072;6.678;2023-03-01T13:17:57;14.67;;;7.97;;
3000;SDS011;1510;51.072;6.678;2023-03-01T13:20:26;11.30;;;6.40;;
3000;SDS011;1510;51.072;6.678;2023-03-01T13:23:04;14.13;;;8.17;;
3000;SDS011;1510;51.072;6.678;2023-03-01T13:25:37;14.40;;;9.30;;
3000;SDS011;1510;51.072;6.678;2023-03-01T13:28:50;15.10;;;9.50;;
3000;SDS011;1510;51.072;6.678;2023-03-01T13:37:16;13.27;;;9.17;;
3000;SDS011;1510;51.072;6.678;2023-03-01T13:39:48;15.43;;;6.87;;
3000;SDS011;1510;51.072;6.678;2023-03-01T13:45:17;16.03;;;8.60;;
3000;SDS011;1510;51.072;6.678;2023-03-01T13:47:50;12.77;;;5.87;;
3000;SDS011;1510;51.072;6.678;2023-03-01T13:50:23;12.63;;;8.23;;
3000;SDS011;1510;51.072;6.678;2023-03-01T13:52:53;9.67;;;5.77;;
3000;SDS011;1510;51.072;6.678;2023-03-01T13:55:24;13.93;;;6.37;;
3000;SDS011;1510;51.072;6.678;2023-03-01T13:58:00;12.30;;;7.90;;
3000;SDS011;1510;51.072;6.678;2023-03-01T14:00:32;15.33;;;9.57;;
3000;SDS011;1510;51.072;6.678;2023-03-01T14:03:04;10.97;;;6.80;;
3000;SDS011;1510;51.072;6.678;2023-03-01T14:05:37;14.10;;;5.93;;
3000;SDS011;1510;51.072;6.678;2023-03-01T14:08:13;14.30;;;9.13;;
3000;SDS011;1510;51.072;6.678;2023-03-01T14:10:48;11.90;;;7.13;;
3000;SDS011;1510;51.072;6.678;2023-03-01T14:13:35;9.17;;;5.60;;
3000;SDS011;1510;51.072;6.678;2023-03-01T14:16:14;11.13;;;6.20;;
3000;SDS011;1510;51.072;6.678;2023-03-01T14:18:52;11.80;;;6.40;;
3000;SDS011;1510;51.072;6.678;2023-03-01T14:21:28;13.83;;;8.80;;
3000;SDS011;1510;51.072;6.678;2023-03-01T14:23:57;9.17;;;5.00;;
3000;SDS011;1510;51.072;6.678;2023-03-01T14:26:26;15.07;;;7.47;;
3000;SDS011;1510;51.072;6.678;2023-03-01T14:28:54;13.57;;;7.80;;
3000;SDS011;1510;51.072;6.678;2023-03-01T14:31:32;17.20;;;8.80;;
3000;SDS011;1510;51.072;6.678;2023-03-01T14:34:02;13.38;;;7.90;;
3000;SDS011;1510;51.072;6.678;2023-03-01T14:36:32;12.60;;;7.73;;
3000;SDS011;1510;51.072;6.678;2023-03-01T14:39:00;15.10;;;8.87;;
3000;SDS011;1510;51.072;6.678;2023-03-01T14:41:35;15.80;;;9.33;;
3000;SDS011;1510;51.072;6.678;2023-03-01T14:44:14;14.03;;;9.10;;
3000;SDS011;1510;51.072;6.678;2023-03-01T14:46:45;15.23;;;9.60;;
3000;SDS011;1510;51.072;6.678;2023-03-01T14:49:14;14.37;;;9.20;;
3000;SDS011;1510;51.072;6.678;2023-03-01T14:51:48;15.30;;;8.80;;
3000;SDS011;1510;51.072;6.678;2023-03-01T14:54:20;11.83;;;7.73;;
3000;SDS011;1510;51.072;6.678;2023-03-01T14:56:52;17.00;;;9.17;;
3000;SDS011;1510;51.072;6.678;2023-03-01T14:59:24;15.67;;;9.03;;
3000;SDS011;1510;51.072;6.678;2023-03-01T15:01:51;13.30;;;9.90;;
3000;SDS011;1510;51.072;6.678;2023-03-01T15:04:21;12.10;;;7.60;;
3000;SDS011;1510;51.072;6.678;2023-03-01T15:06:54;13.13;;;9.07;;
3000;SDS011;1510;51.072;6.678;2023-03-01T15:09:31;15.60;;;8.90;;
3000;SDS011;1510;51.072;6.678;2023-03-01T15:12:00;14.57;;;8.97;;
3000;SDS011;1510;51.072;6.678;2023-03-01T15:21:04;11.50;;;6.80;;
3000;SDS011;1510;51.072;6.678;2023-03-01T15:23:59;14.27;;;8.17;;
3000;SDS011;1510;51.072;6.678;2023-03-01T15:26:54;16.20;;;7.67;;
3000;SDS011;1510;51.072;6.678;2023-03-01T15:32:00;16.00;;;9.37;;
3000;SDS011;1510;51.072;6.678;2023-03-01T15:34:32;13.60;;;8.07;;
3000;SDS011;1510;51.072;6.678;2023-03-01T15:37:03;11.43;;;7.43;;
3000;SDS011;1510;51.072;6.678;2023-03-01T15:39:37;18.07;;;8.10;;
3000;SDS011;1510;51.072;6.678;2023-03-01T15:42:09;11.27;;;6.90;;
3000;SDS011;1510;51.072;6.678;2023-03-01T15:44:37;13.53;;;7.83;;
3000;SDS011;1510;51.072;6.678;2023-03-01T15:47:20;14.90;;;7.30;;
3000;SDS011;1510;51.072;6.678;2023-03-01T15:49:51;10.57;;;6.77;;
3000;SDS011;1510;51.072;6.678;2023-03-01T15:52:22;17.97;;;7.60;;
3000;SDS011;1510;51.072;6.678;2023-03-01T15:54:54;16.30;;;8.33;;
3000;SDS011;1510;51.072;6.678;2023-03-01T15:57:23;14.27;;;7.17;;
3000;SDS011;1510;51.072;6.678;2023-03-01T15:59:50;13.03;;;7.50;;
3000;SDS011;1510;51.072;6.678;2023-03-01T16:02:18;13.63;;;7.93;;
3000;SDS011;1510;51.072;6.678;2023-03-01T16:04:47;12.27;;;7.60;;
3000;SDS011;1510;51.072;6.678;2023-03-01T16:07:14;14.17;;;8.63;;
3000;SDS011;1510;51.072;6.678;2023-03-01T16:09:43;18.90;;;8.37;;
3000;SDS011;1510;51.072;6.678;2023-03-01T16:12:11;10.53;;;7.03;;
3000;SDS011;1510;51.072;6.678;2023-03-01T16:14:41;15.23;;;7.40;;
3000;SDS011;1510;51.072;6.678;2023-03-01T16:17:09;11.50;;;7.07;;
3000;SDS011;1510;51.072;6.678;2023-03-01T16:19:36;11.53;;;6.67;;
3000;SDS011;1510;51.072;6.678;2023-03-01T16:22:03;12.07;;;7.43;;
3000;SDS011;1510;51.072;6.678;2023-03-01T16:24:30;12.30;;;7.03;;
3000;SDS011;1510;51.072;6.678;2023-03-01T16:26:58;17.57;;;7.43;;
3000;SDS011;1510;51.072;6.678;2023-03-01T16:29:25;13.20;;;8.27;;
3000;SDS011;1510;51.072;6.678;2023-03-01T16:31:54;9.20;;;4.27;;
3000;SDS011;1510;51.072;6.678;2023-03-01T16:34:21;11.37;;;6.97;;
3000;SDS011;1510;51.072;6.678;2023-03-01T16:36:48;20.90;;;7.00;;
3000;SDS011;1510;51.072;6.678;2023-03-01T16:39:15;12.57;;;6.87;;
3000;SDS011;1510;51.072;6.678;2023-03-01T16:41:42;11.13;;;7.10;;
3000;SDS011;1510;51.072;6.678;2023-03-01T16:44:10;14.13;;;7.00;;
3000;SDS011;1510;51.072;6.678;2023-03-01T16:46:38;18.40;;;8.27;;
3000;SDS011;1510;51.072;6.678;2023-03-01T16:49:07;20.10;;;10.63;;
3000;SDS011;1510;51.072;6.678;2023-03-01T16:51:35;14.67;;;8.53;;
3000;SDS011;1510;51.072;6.678;2023-03-01T16:54:05;20.60;;;9.70;;
3000;SDS011;1510;51.072;6.678;2023-03-01T16:56:32;14.47;;;6.00;;
3000;SDS011;1510;51.072;6.678;2023-03-01T16:59:02;12.87;;;8.77;;
3000;SDS011;1510;51.072;6.678;2023-03-01T17:22:19;11.70;;;6.90;;
3000;SDS011;1510;51.072;6.678;2023-03-01T17:30:16;14.50;;;7.70;;
3000;SDS011;1510;51.072;6.678;2023-03-01T17:32:46;13.30;;;7.60;;
3000;SDS011;1510;51.072;6.678;2023-03-01T17:35:14;11.07;;;6.20;;
3000;SDS011;1510;51.072;6.678;2023-03-01T17:37:43;11.40;;;7.03;;
3000;SDS011;1510;51.072;6.678;2023-03-01T17:58:55;16.37;;;7.13;;
3000;SDS011;1510;51.072;6.678;2023-03-01T18:01:22;12.07;;;7.40;;
3000;SDS011;1510;51.072;6.678;2023-03-01T18:03:50;12.03;;;8.23;;
3000;SDS011;1510;51.072;6.678;2023-03-01T18:06:18;14.60;;;8.10;;
3000;SDS011;1510;51.072;6.678;2023-03-01T18:08:47;13.07;;;8.50;;
3000;SDS011;1510;51.072;6.678;2023-03-01T18:11:16;13.90;;;8.20;;
3000;SDS011;1510;51.072;6.678;2023-03-01T18:13:55;14.20;;;8.10;;
3000;SDS011;1510;51.072;6.678;2023-03-01T18:16:23;14.30;;;8.30;;
3000;SDS011;1510;51.072;6.678;2023-03-01T18:18:53;15.43;;;8.53;;
3000;SDS011;1510;51.072;6.678;2023-03-01T18:21:21;15.60;;;10.07;;
3000;SDS011;1510;51.072;6.678;2023-03-01T18:23:49;13.53;;;7.17;;
3000;SDS011;1510;51.072;6.678;2023-03-01T18:26:21;14.30;;;8.37;;
3000;SDS011;1510;51.072;6.678;2023-03-01T18:28:52;18.00;;;8.40;;
3000;SDS011;1510;51.072;6.678;2023-03-01T18:31:22;17.17;;;8.50;;
3000;SDS011;1510;51.072;6.678;2023-03-01T18:33:50;17.77;;;8.93;;
3000;SDS011;1510;51.072;6.678;2023-03-01T18:36:23;13.63;;;7.37;;
3000;SDS011;1510;51.072;6.678;2023-03-01T18:38:52;15.00;;;7.30;;
3000;SDS011;1510;51.072;6.678;2023-03-01T18:41:21;13.30;;;8.43;;
3000;SDS011;1510;51.072;6.678;2023-03-01T18:43:48;16.27;;;8.50;;
3000;SDS011;1510;51.072;6.678;2023-03-01T18:46:17;10.97;;;7.37;;
3000;SDS011;1510;51.072;6.678;2023-03-01T18:48:50;14.30;;;6.97;;
3000;SDS011;1510;51.072;6.678;2023-03-01T18:51:21;15.47;;;8.27;;
3000;SDS011;1510;51.072;6.678;2023-03-01T18:53:54;13.60;;;8.23;;
3000;SDS011;1510;51.072;6.678;2023-03-01T18:56:22;14.53;;;6.83;;
3000;SDS011;1510;51.072;6.678;2023-03-01T18:58:53;15.47;;;7.50;;
3000;SDS011;1510;51.072;6.678;2023-03-01T19:01:23;14.30;;;8.40;;
3000;SDS011;1510;51.072;6.678;2023-03-01T19:03:57;23.73;;;9.70;;
3000;SDS011;1510;51.072;6.678;2023-03-01T19:06:30;28.90;;;16.10;;
3000;SDS011;1510;51.072;6.678;2023-03-01T19:08:57;42.47;;;22.30;;
3000;SDS011;1510;51.072;6.678;2023-03-01T19:11:25;47.50;;;25.60;;
3000;SDS011;1510;51.072;6.678;2023-03-01T19:13:54;44.40;;;24.47;;
3000;SDS011;1510;51.072;6.678;2023-03-01T19:16:25;28.90;;;14.40;;
3000;SDS011;1510;51.072;6.678;2023-03-01T19:18:57;22.10;;;12.57;;
3000;SDS011;1510;51.072;6.678;2023-03-01T19:21:38;32.07;;;15.03;;
3000;SDS011;1510;51.072;6.678;2023-03-01T19:24:05;48.00;;;19.60;;
3000;SDS011;1510;51.072;6.678;2023-03-01T19:26:32;35.30;;;14.70;;
3000;SDS011;1510;51.072;6.678;2023-03-01T19:29:02;33.23;;;15.17;;
3000;SDS011;1510;51.072;6.678;2023-03-01T19:31:35;42.22;;;13.82;;
3000;SDS011;1510;51.072;6.678;2023-03-01T19:34:11;44.73;;;19.30;;
3000;SDS011;1510;51.072;6.678;2023-03-01T19:36:38;34.70;;;15.10;;
3000;SDS011;1510;51.072;6.678;2023-03-01T19:39:09;44.17;;;18.70;;
3000;SDS011;1510;51.072;6.678;2023-03-01T19:41:47;24.23;;;12.40;;
3000;SDS011;1510;51.072;6.678;2023-03-01T19:44:20;18.80;;;10.75;;
3000;SDS011;1510;51.072;6.678;2023-03-01T19:54:27;16.13;;;10.10;;
3000;SDS011;1510;51.072;6.678;2023-03-01T19:56:54;20.00;;;10.40;;
3000;SDS011;1510;51.072;6.678;2023-03-01T19:59:22;19.27;;;10.77;;
3000;SDS011;1510;51.072;6.678;2023-03-01T20:01:55;20.47;;;9.93;;
3000;SDS011;1510;51.072;6.678;2023-03-01T20:09:39;16.35;;;8.75;;
3000;SDS011;1510;51.072;6.678;2023-03-01T20:12:08;23.20;;;9.23;;
3000;SDS011;1510;51.072;6.678;2023-03-01T20:14:38;24.63;;;8.30;;
3000;SDS011;1510;51.072;6.678;2023-03-01T20:17:14;22.83;;;8.90;;
3000;SDS011;1510;51.072;6.678;2023-03-01T20:19:41;12.35;;;7.88;;
3000;SDS011;1510;51.072;6.678;2023-03-01T20:22:11;13.80;;;8.43;;
3000;SDS011;1510;51.072;6.678;2023-03-01T20:24:45;16.23;;;9.95;;
3000;SDS011;1510;51.072;6.678;2023-03-01T20:27:21;16.20;;;9.00;;
3000;SDS011;1510;51.072;6.678;2023-03-01T20:29:51;19.52;;;8.95;;
3000;SDS011;1510;51.072;6.678;2023-03-01T20:32:21;30.20;;;10.50;;
3000;SDS011;1510;51.072;6.678;2023-03-01T20:34:51;27.83;;;13.40;;
3000;SDS011;1510;51.072;6.678;2023-03-01T20:37:20;23.67;;;10.13;;
3000;SDS011;1510;51.072;6.678;2023-03-01T20:47:27;16.30;;;7.90;;
3000;SDS011;1510;51.072;6.678;2023-03-01T20:49:56;17.73;;;8.90;;
3000;SDS011;1510;51.072;6.678;2023-03-01T20:52:31;17.70;;;5.40;;
3000;SDS011;1510;51.072;6.678;2023-03-01T20:55:01;17.57;;;9.10;;
3000;SDS011;1510;51.072;6.678;2023-03-01T21:10:54;21.10;;;9.50;;
3000;SDS011;1510;51.072;6.678;2023-03-01T21:13:22;31.37;;;11.33;;
3000;SDS011;1510;51.072;6.678;2023-03-01T22:10:14;21.63;;;10.05;;
3000;SDS011;1510;51.072;6.678;2023-03-01T22:30:51;18.05;;;10.18;;
